Time;durP1;ratioP1;P1;durP2;ratioP2;P2;SDS_P1;SDS_P2;PMS_P1;PMS_P2;Temp;Humidity;BMP_temperature;BMP_pressure;BME280_temperature;BME280_humidity;BME280_pressure;Samples;Min_cycle;Max_cycle;Signal;HPM_P1;HPM_P2
2022/11/24 00:01:27;;;;;;;1999.90;999.90;;;10.10;99.90;;;;;;5035508;28;20408;-69
2022/11/24 00:03:55;;;;;;;1999.90;999.90;;;10.10;99.90;;;;;;5035263;28;20760;-69
2022/11/24 00:06:21;;;;;;;1999.90;999.90;;;10.00;99.90;;;;;;5034921;28;20771;-69
2022/11/24 00:08:47;;;;;;;1999.90;999.90;;;10.10;99.90;;;;;;5034579;28;20455;-69
2022/11/24 00:11:24;;;;;;;1999.90;999.90;;;10.00;99.90;;;;;;5034774;28;20413;-69
2022/11/24 00:13:50;;;;;;;1999.90;999.90;;;10.10;99.90;;;;;;5034893;28;20828;-69
2022/11/24 00:16:21;;;;;;;1999.90;999.90;;;10.00;99.90;;;;;;5034796;28;20402;-69
2022/11/24 00:18:48;;;;;;;1999.90;999.90;;;10.00;99.90;;;;;;5034563;28;20657;-68
2022/11/24 00:21:15;;;;;;;1999.90;999.90;;;10.10;99.90;;;;;;5034570;28;20428;-69
2022/11/24 00:23:41;;;;;;;1999.90;999.90;;;10.10;99.90;;;;;;5034694;28;20766;-68
2022/11/24 00:26:11;;;;;;;1999.90;999.90;;;10.00;99.90;;;;;;5034643;28;20411;-69
2022/11/24 00:28:37;;;;;;;1999.90;999.90;;;10.10;99.90;;;;;;5033722;28;20977;-69
2022/11/24 00:31:04;;;;;;;1999.90;999.90;;;10.10;99.90;;;;;;5034532;28;20494;-69
2022/11/24 00:33:30;;;;;;;1999.90;999.90;;;10.00;99.90;;;;;;5034405;28;20429;-68
2022/11/24 00:35:59;;;;;;;1999.90;999.90;;;10.00;99.90;;;;;;5034243;28;20427;-69
2022/11/24 00:38:26;;;;;;;1999.90;999.90;;;10.00;99.90;;;;;;5034349;28;20425;-69
2022/11/24 00:40:51;;;;;;;1999.90;999.90;;;10.10;99.90;;;;;;5034390;28;20916;-69
2022/11/24 00:43:18;;;;;;;1999.90;999.90;;;10.00;99.90;;;;;;5034219;28;20428;-69
2022/11/24 00:45:43;;;;;;;1999.90;999.90;;;10.00;99.90;;;;;;5033684;28;20415;-69
2022/11/24 00:48:09;;;;;;;1999.90;999.90;;;10.00;99.90;;;;;;5033192;28;20837;-69
2022/11/24 00:50:35;;;;;;;1999.90;999.90;;;10.00;99.90;;;;;;5034125;28;20660;-69
2022/11/24 00:53:01;;;;;;;1999.90;999.90;;;10.00;99.90;;;;;;5033958;28;20524;-69
2022/11/24 00:55:26;;;;;;;1999.90;999.90;;;10.00;99.90;;;;;;5034248;28;20183;-69
2022/11/24 00:57:52;;;;;;;1999.90;999.90;;;10.00;99.90;;;;;;5033737;28;20325;-70
2022/11/24 01:00:18;;;;;;;1999.90;999.90;;;10.10;99.90;;;;;;5034009;28;20183;-69
2022/11/24 01:02:44;;;;;;;1999.90;999.90;;;10.10;99.90;;;;;;5033823;28;20723;-69
2022/11/24 01:05:09;;;;;;;1999.90;999.90;;;10.20;99.90;;;;;;5033827;28;20402;-69
2022/11/24 01:07:35;;;;;;;1999.90;999.90;;;10.20;99.90;;;;;;5033507;28;20773;-70
2022/11/24 01:10:01;;;;;;;1999.90;999.90;;;10.30;99.90;;;;;;5033797;28;20242;-69
2022/11/24 01:12:27;;;;;;;1999.90;999.90;;;10.20;99.90;;;;;;5033692;28;20192;-69
2022/11/24 01:14:52;;;;;;;1999.90;999.90;;;10.30;99.90;;;;;;5033758;28;20406;-69
2022/11/24 01:17:18;;;;;;;1999.90;999.90;;;10.30;99.90;;;;;;5033453;28;20402;-69
2022/11/24 01:19:46;;;;;;;1999.90;999.90;;;10.20;99.90;;;;;;5033364;28;20670;-69
2022/11/24 01:22:12;;;;;;;1999.90;999.90;;;10.20;99.90;;;;;;5033658;28;20191;-70
2022/11/24 01:24:37;;;;;;;1999.90;999.90;;;10.20;99.90;;;;;;5033466;28;20450;-69
2022/11/24 01:27:03;;;;;;;1999.90;999.90;;;10.10;99.90;;;;;;5033261;28;20434;-69
2022/11/24 01:29:28;;;;;;;1999.90;999.90;;;10.00;99.90;;;;;;5033313;28;20227;-69
2022/11/24 01:31:54;;;;;;;1999.90;999.90;;;10.00;99.90;;;;;;5033267;28;20184;-69
2022/11/24 01:34:19;;;;;;;1999.90;999.90;;;10.00;99.90;;;;;;5033248;28;20171;-70
2022/11/24 01:36:45;;;;;;;1999.90;999.90;;;10.00;99.90;;;;;;5032782;28;20202;-69
2022/11/24 01:39:12;;;;;;;1999.90;999.90;;;10.00;99.90;;;;;;5033131;28;20607;-69
2022/11/24 01:41:37;;;;;;;1999.90;999.90;;;9.90;99.90;;;;;;5033190;28;20213;-69
2022/11/24 01:44:20;;;;;;;1999.90;999.90;;;10.00;99.90;;;;;;5033158;28;20411;-69
2022/11/24 01:46:50;;;;;;;1999.90;999.90;;;10.00;99.90;;;;;;5032819;28;20182;-69
2022/11/24 01:49:18;;;;;;;1999.90;999.90;;;9.90;99.90;;;;;;5032935;28;20844;-69
2022/11/24 01:51:49;;;;;;;1999.90;999.90;;;9.90;99.90;;;;;;5032870;28;20453;-69
2022/11/24 01:54:19;;;;;;;1999.90;999.90;;;10.00;99.90;;;;;;5033082;28;20436;-69
2022/11/24 01:56:49;;;;;;;1999.90;999.90;;;10.00;99.90;;;;;;5032652;28;20406;-69
2022/11/24 01:59:18;;;;;;;1999.90;999.90;;;10.00;99.90;;;;;;5032430;28;20407;-69
2022/11/24 02:01:45;;;;;;;1999.90;999.90;;;10.00;99.90;;;;;;5032826;28;20793;-69
2022/11/24 02:04:14;;;;;;;1999.90;999.90;;;10.00;99.90;;;;;;5032786;28;20415;-69
2022/11/24 02:06:43;;;;;;;1999.90;999.90;;;10.10;99.90;;;;;;5032540;28;20425;-69
2022/11/24 02:09:22;;;;;;;1999.90;999.90;;;10.20;99.90;;;;;;5032527;28;20454;-69
2022/11/24 02:11:47;;;;;;;1999.90;999.90;;;10.20;99.90;;;;;;5032496;28;20440;-69
2022/11/24 02:14:16;;;;;;;1999.90;999.90;;;10.20;99.90;;;;;;5032598;28;20406;-69
2022/11/24 02:16:48;;;;;;;1999.90;999.90;;;10.10;99.90;;;;;;5032405;28;20165;-69
2022/11/24 02:19:33;;;;;;;1999.90;999.90;;;10.00;99.90;;;;;;5032337;28;20426;-70
2022/11/24 02:22:00;;;;;;;1999.90;999.90;;;9.90;99.90;;;;;;5032395;28;20969;-69
2022/11/24 02:24:55;;;;;;;1999.90;999.90;;;9.80;99.90;;;;;;5032633;28;20890;-69
2022/11/24 02:27:21;;;;;;;1999.90;999.90;;;9.70;99.90;;;;;;5030683;28;20418;-69
2022/11/24 02:29:47;;;;;;;1999.90;999.90;;;9.70;99.90;;;;;;5032250;28;20549;-69
2022/11/24 02:32:14;;;;;;;1999.90;999.90;;;9.60;99.90;;;;;;5032333;28;20548;-69
2022/11/24 02:34:40;;;;;;;1999.90;999.90;;;9.50;99.90;;;;;;5032183;28;20430;-69
2022/11/24 02:37:06;;;;;;;1999.90;999.90;;;9.50;99.90;;;;;;5031616;28;20503;-69
2022/11/24 02:39:32;;;;;;;1999.90;999.90;;;9.50;99.90;;;;;;5032025;28;20409;-69
2022/11/24 02:42:05;;;;;;;1999.90;999.90;;;9.60;99.90;;;;;;5032077;28;20431;-68
2022/11/24 02:44:44;;;;;;;1999.90;999.90;;;9.60;99.90;;;;;;5032219;28;20694;-68
2022/11/24 02:47:11;;;;;;;1999.90;999.90;;;9.60;99.90;;;;;;5031770;28;20425;-68
2022/11/24 02:49:37;;;;;;;1999.90;999.90;;;9.70;99.90;;;;;;5031905;28;20549;-68
2022/11/24 02:52:04;;;;;;;1999.90;999.90;;;9.60;99.90;;;;;;5031822;28;20544;-69
2022/11/24 02:54:29;;;;;;;1999.90;999.90;;;9.60;99.90;;;;;;5032030;28;20415;-68
2022/11/24 02:56:55;;;;;;;1999.90;999.90;;;9.60;99.90;;;;;;5031760;28;21152;-68
2022/11/24 02:59:21;;;;;;;1999.90;999.90;;;9.70;99.90;;;;;;5031939;28;20237;-69
2022/11/24 03:01:46;;;;;;;1999.90;999.90;;;9.80;99.90;;;;;;5031807;28;20195;-69
2022/11/24 03:04:12;;;;;;;1999.90;999.90;;;9.80;99.90;;;;;;5031872;28;20421;-69
2022/11/24 03:06:38;;;;;;;1999.90;999.90;;;9.70;99.90;;;;;;5031693;28;20258;-69
2022/11/24 03:09:04;;;;;;;1999.90;999.90;;;9.70;99.90;;;;;;5031760;28;20196;-69
2022/11/24 03:11:30;;;;;;;1999.90;999.90;;;9.50;99.90;;;;;;5035677;28;20410;-69
2022/11/24 03:13:55;;;;;;;1999.90;999.90;;;9.50;99.90;;;;;;5036008;28;20405;-69
2022/11/24 03:16:21;;;;;;;1999.90;999.90;;;9.40;99.90;;;;;;5035740;28;20707;-70
2022/11/24 03:18:49;;;;;;;1999.90;999.90;;;9.40;99.90;;;;;;5035631;28;20172;-70
2022/11/24 03:21:15;;;;;;;1999.90;999.90;;;9.50;99.90;;;;;;5035756;28;20646;-69
2022/11/24 03:23:40;;;;;;;1999.90;999.90;;;9.50;99.90;;;;;;5035786;28;20538;-69
2022/11/24 03:26:11;;;;;;;1999.90;999.90;;;9.60;99.90;;;;;;5035699;28;20663;-70
2022/11/24 03:28:37;;;;;;;1999.90;999.90;;;9.50;99.90;;;;;;5035410;28;20203;-70
2022/11/24 03:31:02;;;;;;;1999.90;999.90;;;9.50;99.90;;;;;;5035650;28;20405;-70
2022/11/24 03:33:28;;;;;;;1999.90;999.90;;;9.40;99.90;;;;;;5035693;28;20285;-69
2022/11/24 03:35:54;;;;;;;1999.90;999.90;;;9.40;99.90;;;;;;5035483;28;20162;-69
2022/11/24 03:38:19;;;;;;;1999.90;999.90;;;9.30;99.90;;;;;;5035457;28;20182;-70
2022/11/24 03:40:45;;;;;;;1999.90;999.90;;;9.20;99.90;;;;;;5035504;28;20183;-69
2022/11/24 03:43:10;;;;;;;1999.90;999.90;;;9.20;99.90;;;;;;5035312;28;20268;-69
2022/11/24 03:45:36;;;;;;;1999.90;999.90;;;9.20;99.90;;;;;;5035391;28;20175;-69
2022/11/24 03:48:02;;;;;;;1999.90;999.90;;;9.20;99.90;;;;;;5035024;28;20594;-69
2022/11/24 03:50:27;;;;;;;1999.90;999.90;;;9.30;99.90;;;;;;5035402;28;20179;-69
2022/11/24 03:52:53;;;;;;;1999.90;999.90;;;9.40;99.90;;;;;;5035182;28;20218;-69
2022/11/24 03:55:18;;;;;;;1999.90;999.90;;;9.50;99.90;;;;;;5035236;28;20537;-69
2022/11/24 03:57:44;;;;;;;1999.90;999.90;;;9.60;99.90;;;;;;5034919;28;20196;-69
2022/11/24 04:00:10;;;;;;;1999.90;999.90;;;9.70;99.90;;;;;;5035070;28;20232;-69
2022/11/24 04:02:36;;;;;;;1999.90;999.90;;;9.80;99.90;;;;;;5034945;28;20203;-69
2022/11/24 04:05:02;;;;;;;1999.90;999.90;;;9.80;99.90;;;;;;5035057;28;20400;-69
2022/11/24 04:07:28;;;;;;;1999.90;999.90;;;9.90;99.90;;;;;;5034964;28;20783;-69
2022/11/24 04:09:53;;;;;;;1999.90;999.90;;;10.00;99.90;;;;;;5034921;28;20416;-69
2022/11/24 04:15:04;;;;;;;1999.90;999.90;;;10.10;99.90;;;;;;5034933;28;20241;-69
2022/11/24 04:17:29;;;;;;;1999.90;999.90;;;10.10;99.90;;;;;;5034840;28;20402;-69
2022/11/24 04:19:55;;;;;;;1999.90;999.90;;;10.20;99.90;;;;;;5034720;28;20410;-69
2022/11/24 04:22:20;;;;;;;1999.90;999.90;;;10.20;99.90;;;;;;5034334;28;20206;-69
2022/11/24 04:24:46;;;;;;;1999.90;999.90;;;10.30;99.90;;;;;;5034715;28;20171;-68
2022/11/24 04:27:11;;;;;;;1999.90;999.90;;;10.30;99.90;;;;;;5034205;28;20222;-69
2022/11/24 04:29:37;;;;;;;1999.90;999.90;;;10.40;99.90;;;;;;5034444;28;20207;-69
2022/11/24 04:32:03;;;;;;;1999.90;999.90;;;10.40;99.90;;;;;;5034416;28;20541;-69
2022/11/24 04:34:28;;;;;;;1999.90;999.90;;;10.40;99.90;;;;;;5034477;28;20199;-69
2022/11/24 04:36:54;;;;;;;1999.90;999.90;;;10.40;99.90;;;;;;5034070;28;20568;-69
2022/11/24 04:39:20;;;;;;;1999.90;999.90;;;10.40;99.90;;;;;;5034207;28;20189;-69
2022/11/24 04:41:46;;;;;;;1999.90;999.90;;;10.40;99.90;;;;;;5034288;28;20237;-69
2022/11/24 04:44:11;;;;;;;1999.90;999.90;;;10.40;99.90;;;;;;5034331;28;20171;-69
2022/11/24 04:46:37;;;;;;;1999.90;999.90;;;10.50;99.90;;;;;;5034027;28;20416;-69
2022/11/24 04:49:03;;;;;;;1999.90;999.90;;;10.50;99.90;;;;;;5034036;28;20211;-69
2022/11/24 04:51:28;;;;;;;1999.90;999.90;;;10.50;99.90;;;;;;5034001;28;20187;-69
2022/11/24 04:53:54;;;;;;;1999.90;999.90;;;10.50;99.90;;;;;;5034221;28;20266;-69
2022/11/24 04:56:19;;;;;;;1999.90;999.90;;;10.50;99.90;;;;;;5033971;28;20179;-70
2022/11/24 04:58:47;;;;;;;1999.90;999.90;;;10.50;99.90;;;;;;5033892;28;20182;-70
2022/11/24 05:01:13;;;;;;;1999.90;999.90;;;10.50;99.90;;;;;;5034101;28;20617;-70
2022/11/24 05:03:39;;;;;;;1999.90;999.90;;;10.50;99.90;;;;;;5033951;28;20450;-70
2022/11/24 05:06:05;;;;;;;1999.90;999.90;;;10.40;99.90;;;;;;5033765;28;20568;-69
2022/11/24 05:08:31;;;;;;;1999.90;999.90;;;10.50;99.90;;;;;;5033632;28;20200;-70
2022/11/24 05:10:56;;;;;;;1999.90;999.90;;;10.50;99.90;;;;;;5033794;28;20536;-70
2022/11/24 05:13:22;;;;;;;1999.90;999.90;;;10.40;99.90;;;;;;5033724;28;20191;-69
2022/11/24 05:15:48;;;;;;;1999.90;999.90;;;10.40;99.90;;;;;;5033638;28;20439;-70
2022/11/24 05:18:16;;;;;;;1999.90;999.90;;;10.40;99.90;;;;;;5033461;28;20234;-70
2022/11/24 05:20:45;;;;;;;1999.90;999.90;;;10.30;99.90;;;;;;5033690;28;20183;-70
2022/11/24 05:23:11;;;;;;;1999.90;999.90;;;10.20;99.90;;;;;;5033509;28;20429;-69
2022/11/24 05:25:37;;;;;;;1999.90;999.90;;;10.00;99.90;;;;;;5033525;28;20410;-70
2022/11/24 05:28:07;;;;;;;1999.90;999.90;;;9.80;99.90;;;;;;5033211;28;20506;-70
2022/11/24 05:30:33;;;;;;;1999.90;999.90;;;9.70;99.90;;;;;;5033470;28;20189;-69
2022/11/24 05:33:02;;;;;;;1999.90;999.90;;;9.50;99.90;;;;;;5032678;28;20433;-69
2022/11/24 05:35:29;;;;;;;1999.90;999.90;;;9.40;99.90;;;;;;5033423;28;20254;-69
2022/11/24 05:37:54;;;;;;;1999.90;999.90;;;9.40;99.90;;;;;;5032760;28;20414;-69
2022/11/24 05:40:20;;;;;;;1999.90;999.90;;;9.40;99.90;;;;;;5033299;28;20417;-69
2022/11/24 05:42:45;;;;;;;1999.90;999.90;;;9.30;99.90;;;;;;5033153;28;20206;-69
2022/11/24 05:45:19;;;;;;;1999.90;999.90;;;9.30;99.90;;;;;;5033128;28;20211;-69
2022/11/24 05:47:45;;;;;;;1999.90;999.90;;;9.30;99.90;;;;;;5032849;28;20214;-69
2022/11/24 05:50:12;;;;;;;1999.90;999.90;;;9.30;99.90;;;;;;5033020;28;20456;-69
2022/11/24 05:52:38;;;;;;;1999.90;999.90;;;9.30;99.90;;;;;;5032951;28;20565;-69
2022/11/24 05:55:05;;;;;;;1999.90;999.90;;;9.30;99.90;;;;;;5032967;28;20507;-69
2022/11/24 05:57:31;;;;;;;1999.90;999.90;;;9.20;99.90;;;;;;5032834;28;20185;-69
2022/11/24 05:59:56;;;;;;;1999.90;999.90;;;9.20;99.90;;;;;;5033310;28;20404;-69
2022/11/24 06:02:22;;;;;;;1999.90;999.90;;;9.10;99.90;;;;;;5032773;28;20194;-70
2022/11/24 06:04:48;;;;;;;1999.90;999.90;;;9.00;99.90;;;;;;5032855;28;20219;-70
2022/11/24 06:07:13;;;;;;;1999.90;999.90;;;9.00;99.90;;;;;;5032534;28;20271;-70
2022/11/24 06:09:41;;;;;;;1999.90;999.90;;;8.80;99.90;;;;;;5032697;28;20281;-69
2022/11/24 06:12:08;;;;;;;1999.90;999.90;;;8.80;99.90;;;;;;5032709;28;20204;-69
2022/11/24 06:14:34;;;;;;;1999.90;999.90;;;8.70;99.90;;;;;;5032697;28;20409;-69
2022/11/24 06:17:00;;;;;;;1999.90;999.90;;;8.70;99.90;;;;;;5032452;28;20949;-69
2022/11/24 06:19:25;;;;;;;1999.90;999.90;;;8.70;99.90;;;;;;5032436;28;20255;-69
2022/11/24 06:21:51;;;;;;;1999.90;999.90;;;8.60;99.90;;;;;;5032446;28;20203;-70
2022/11/24 06:24:16;;;;;;;1999.90;999.90;;;8.70;99.90;;;;;;5032711;28;20180;-69
2022/11/24 06:26:42;;;;;;;1999.90;999.90;;;8.60;99.90;;;;;;5032164;28;20573;-69
2022/11/24 06:29:08;;;;;;;1999.90;999.90;;;8.60;99.90;;;;;;5032200;28;20209;-69
2022/11/24 06:31:33;;;;;;;1999.90;999.90;;;8.60;99.90;;;;;;5032364;28;20719;-69
2022/11/24 06:33:59;;;;;;;1999.90;999.90;;;8.70;99.90;;;;;;5032325;28;20169;-69
2022/11/24 06:36:25;;;;;;;1999.90;999.90;;;8.70;99.90;;;;;;5032093;28;20319;-69
2022/11/24 06:38:51;;;;;;;1999.90;999.90;;;8.70;99.90;;;;;;5031704;28;20411;-69
2022/11/24 06:41:17;;;;;;;1999.90;999.90;;;8.70;99.90;;;;;;5032190;28;20438;-69
2022/11/24 06:43:43;;;;;;;1999.90;999.90;;;8.60;99.90;;;;;;5032146;28;20166;-71
2022/11/24 06:46:10;;;;;;;1999.90;999.90;;;8.60;99.90;;;;;;5032047;28;20408;-69
2022/11/24 06:48:36;;;;;;;1999.90;999.90;;;8.60;99.90;;;;;;5031801;28;20443;-69
2022/11/24 06:51:04;;;;;;;1999.90;999.90;;;8.60;99.90;;;;;;5032123;28;20458;-69
2022/11/24 06:53:37;;;;;;;1999.90;999.90;;;8.50;99.90;;;;;;5031905;28;20580;-69
2022/11/24 06:56:05;;;;;;;1999.90;999.90;;;8.40;99.90;;;;;;5032085;28;20492;-69
2022/11/24 06:58:31;;;;;;;1999.90;999.90;;;8.40;99.90;;;;;;5031760;28;20408;-69
2022/11/24 07:00:56;;;;;;;1999.90;999.90;;;8.40;99.90;;;;;;5031963;28;20409;-69
2022/11/24 07:03:22;;;;;;;1999.90;999.90;;;8.40;99.90;;;;;;5031779;28;20268;-69
2022/11/24 07:05:48;;;;;;;1999.90;999.90;;;8.40;99.90;;;;;;5032113;28;20549;-69
2022/11/24 07:08:14;;;;;;;1999.90;999.90;;;8.40;99.90;;;;;;5031552;28;20196;-69
2022/11/24 07:10:40;;;;;;;1999.90;999.90;;;8.40;99.90;;;;;;5031938;28;20172;-69
2022/11/24 07:13:09;;;;;;;1999.90;999.90;;;8.40;99.90;;;;;;5031712;28;20456;-69
2022/11/24 07:15:35;;;;;;;1999.90;999.90;;;8.50;99.90;;;;;;5031756;28;20412;-69
2022/11/24 07:18:00;;;;;;;1999.90;999.90;;;8.40;99.90;;;;;;5031481;28;20897;-69
2022/11/24 07:20:26;;;;;;;1999.90;999.90;;;8.40;99.90;;;;;;5032088;28;20183;-69
2022/11/24 07:22:58;;;;;;;1999.90;999.90;;;8.40;99.90;;;;;;5030530;28;20715;-69
2022/11/24 07:25:24;;;;;;;1999.90;999.90;;;8.40;99.90;;;;;;5031664;28;20649;-69
2022/11/24 07:27:55;;;;;;;1999.90;999.90;;;8.40;99.90;;;;;;5031175;28;20465;-70
2022/11/24 07:30:21;;;;;;;1999.90;999.90;;;8.40;99.90;;;;;;5031660;28;20847;-69
2022/11/24 07:32:46;;;;;;;1999.90;999.90;;;8.40;99.90;;;;;;5031586;28;20504;-69
2022/11/24 07:35:12;;;;;;;1999.90;999.90;;;8.40;99.90;;;;;;5031639;28;20175;-69
2022/11/24 07:37:37;;;;;;;1999.90;999.90;;;8.50;99.90;;;;;;5031337;28;20666;-69
2022/11/24 07:40:04;;;;;;;1999.90;999.90;;;8.50;99.90;;;;;;5031572;28;20710;-69
2022/11/24 07:42:29;;;;;;;1999.90;999.90;;;8.50;99.90;;;;;;5031440;28;20227;-69
2022/11/24 07:44:55;;;;;;;1999.90;999.90;;;8.50;99.90;;;;;;5031498;28;20435;-69
2022/11/24 07:47:20;;;;;;;1999.90;999.90;;;8.50;99.90;;;;;;5031327;28;20187;-69
2022/11/24 07:49:46;;;;;;;1999.90;999.90;;;8.50;99.90;;;;;;5031589;28;20601;-69
2022/11/24 07:52:11;;;;;;;1999.90;999.90;;;8.50;99.90;;;;;;5031329;28;20200;-69
2022/11/24 07:54:37;;;;;;;1999.90;999.90;;;8.50;99.90;;;;;;5031522;28;20177;-69
2022/11/24 07:57:02;;;;;;;1999.90;999.90;;;8.60;99.90;;;;;;5034397;28;20669;-69
2022/11/24 07:59:28;;;;;;;1999.90;999.90;;;8.70;99.90;;;;;;5035235;28;20175;-68
2022/11/24 08:01:53;;;;;;;1999.90;999.90;;;8.80;99.90;;;;;;5035305;28;20204;-69
2022/11/24 08:04:19;;;;;;;1999.90;999.90;;;8.90;99.90;;;;;;5035165;28;20175;-69
2022/11/24 08:06:45;;;;;;;1999.90;999.90;;;8.90;99.90;;;;;;5036241;28;20198;-68
2022/11/24 08:09:11;;;;;;;1999.90;999.90;;;9.00;99.90;;;;;;5036485;28;20484;-69
2022/11/24 08:11:36;;;;;;;1999.90;999.90;;;9.10;99.90;;;;;;5035205;28;20190;-69
2022/11/24 08:14:02;;;;;;;1999.90;999.90;;;9.10;99.90;;;;;;5035200;28;20252;-69
2022/11/24 08:16:27;;;;;;;1999.90;999.90;;;9.20;99.90;;;;;;5035085;28;20637;-69
2022/11/24 08:18:54;;;;;;;1999.90;999.90;;;9.30;99.90;;;;;;5035000;28;20199;-69
2022/11/24 08:21:22;;;;;;;1999.90;999.90;;;9.40;99.90;;;;;;5035047;28;20644;-68
2022/11/24 08:23:47;;;;;;;1999.90;999.90;;;9.50;99.90;;;;;;5035004;28;20417;-69
2022/11/24 08:26:16;;;;;;;1999.90;999.90;;;9.50;99.90;;;;;;5034747;28;20422;-69
2022/11/24 08:28:43;;;;;;;1999.90;999.90;;;9.60;99.90;;;;;;5034754;28;20792;-69
2022/11/24 08:31:19;;;;;;;1999.90;999.90;;;9.70;99.90;;;;;;5034802;28;20402;-69
2022/11/24 08:33:45;;;;;;;1999.90;999.90;;;9.80;99.90;;;;;;5035368;28;20412;-69
2022/11/24 08:36:13;;;;;;;1999.90;999.90;;;9.90;99.90;;;;;;5034961;28;20417;-69
2022/11/24 08:38:40;;;;;;;1999.90;999.90;;;9.80;99.90;;;;;;5034809;28;20431;-69
2022/11/24 08:41:08;;;;;;;1999.90;999.90;;;9.80;99.90;;;;;;5034728;28;20418;-69
2022/11/24 08:43:34;;;;;;;1999.90;999.90;;;9.80;99.90;;;;;;5034959;28;20479;-68
2022/11/24 08:46:05;;;;;;;1999.90;999.90;;;9.90;99.90;;;;;;5034434;28;20434;-70
2022/11/24 08:48:31;;;;;;;1999.90;999.90;;;10.00;99.90;;;;;;5033994;28;20457;-69
2022/11/24 08:50:57;;;;;;;1999.90;999.90;;;10.00;99.90;;;;;;5034214;28;20405;-69
2022/11/24 08:53:24;;;;;;;1999.90;999.90;;;10.10;99.90;;;;;;5032958;28;20567;-69
2022/11/24 08:55:49;;;;;;;1999.90;999.90;;;10.10;99.90;;;;;;5032839;28;20407;-70
2022/11/24 08:58:15;;;;;;;1999.90;999.90;;;10.20;99.90;;;;;;5032783;28;20410;-69
2022/11/24 09:00:41;;;;;;;1999.90;999.90;;;10.10;99.90;;;;;;5033112;28;20181;-70
2022/11/24 09:03:10;;;;;;;1999.90;999.90;;;10.10;99.90;;;;;;5032873;28;20440;-70
2022/11/24 09:05:36;;;;;;;1999.90;999.90;;;10.10;99.90;;;;;;5032854;28;20179;-69
2022/11/24 09:08:02;;;;;;;1999.90;999.90;;;10.20;99.90;;;;;;5031413;28;20448;-69
2022/11/24 09:10:28;;;;;;;1999.90;999.90;;;10.20;99.90;;;;;;5032665;28;20410;-69
2022/11/24 09:12:53;;;;;;;1999.90;999.90;;;10.10;99.90;;;;;;5032968;28;20423;-70
2022/11/24 09:15:19;;;;;;;1999.90;999.90;;;10.10;99.90;;;;;;5032797;28;20178;-70
2022/11/24 09:17:45;;;;;;;1999.90;999.90;;;10.10;99.90;;;;;;5032460;28;20182;-70
2022/11/24 09:20:11;;;;;;;1999.90;999.90;;;10.20;99.90;;;;;;5033086;28;20198;-69
2022/11/24 09:22:37;;;;;;;1999.90;999.90;;;10.20;99.90;;;;;;5032551;28;20796;-70
2022/11/24 09:25:04;;;;;;;1999.90;999.90;;;10.10;99.90;;;;;;5032454;28;20479;-69
2022/11/24 09:27:30;;;;;;;1999.90;999.90;;;10.20;99.90;;;;;;5032270;28;20911;-69
2022/11/24 09:29:56;;;;;;;1999.90;999.90;;;10.20;99.90;;;;;;5032535;28;20450;-69
2022/11/24 09:32:22;;;;;;;1999.90;999.90;;;10.40;99.90;;;;;;5032478;28;20458;-69
2022/11/24 09:34:51;;;;;;;1999.90;999.90;;;10.30;99.90;;;;;;5032409;28;20461;-70
2022/11/24 09:37:17;;;;;;;1999.90;999.90;;;10.30;99.90;;;;;;5032217;28;20564;-69
2022/11/24 09:39:42;;;;;;;1999.90;999.90;;;10.30;99.90;;;;;;5032192;28;20448;-69
2022/11/24 09:43:10;;;;;;;1999.90;999.90;;;10.30;99.90;;;;;;5032268;28;20484;-70
2022/11/24 09:45:59;;;;;;;1999.90;999.90;;;10.30;99.90;;;;;;4971190;28;20729;-70
2022/11/24 09:48:37;;;;;;;1999.90;999.90;;;10.30;99.90;;;;;;5032015;28;20570;-69
2022/11/24 09:53:51;;;;;;;1999.90;999.90;;;10.30;99.90;;;;;;5069205;28;20559;-70
2022/11/24 09:56:21;;;;;;;1999.90;999.90;;;10.30;99.90;;;;;;5069119;28;20397;-70
2022/11/24 09:58:49;;;;;;;1999.90;999.90;;;10.30;99.90;;;;;;5069268;28;20406;-70
2022/11/24 10:01:39;;;;;;;1999.90;999.90;;;10.40;99.90;;;;;;5069113;28;20406;-70
2022/11/24 10:04:18;;;;;;;1999.90;999.90;;;10.40;99.90;;;;;;5069291;28;20822;-70
2022/11/24 10:07:06;;;;;;;1999.90;999.90;;;10.40;99.90;;;;;;5069440;28;20939;-69
2022/11/24 10:09:40;;;;;;;1999.90;999.90;;;10.40;99.90;;;;;;5068998;28;20897;-69
2022/11/24 10:12:33;;;;;;;1999.90;999.90;;;10.50;99.90;;;;;;5068869;28;20947;-70
2022/11/24 10:15:04;;;;;;;1999.90;999.90;;;10.50;99.90;;;;;;5068833;28;20756;-70
2022/11/24 10:17:49;;;;;;;1999.90;999.90;;;10.60;99.90;;;;;;5068696;28;20413;-70
2022/11/24 10:20:30;;;;;;;1999.90;999.90;;;10.60;99.90;;;;;;5068725;28;20440;-69
2022/11/24 10:23:17;;;;;;;1999.90;999.90;;;10.70;99.90;;;;;;5068674;28;20416;-70
2022/11/24 10:25:55;;;;;;;1999.90;999.90;;;10.80;99.90;;;;;;5068901;28;20941;-69
2022/11/24 10:28:21;;;;;;;1999.90;999.90;;;10.70;99.90;;;;;;5068471;28;20397;-70
2022/11/24 10:30:47;;;;;;;1999.90;999.90;;;10.70;99.90;;;;;;5068563;28;20409;-69
2022/11/24 10:33:21;;;;;;;1999.90;999.90;;;10.70;99.90;;;;;;5068451;28;20673;-69
2022/11/24 10:35:54;;;;;;;1999.90;999.90;;;10.80;99.90;;;;;;5068364;28;20483;-69
2022/11/24 10:38:20;;;;;;;1999.90;999.90;;;10.90;99.90;;;;;;5068429;28;20437;-70
2022/11/24 10:40:52;;;;;;;1999.90;999.90;;;11.00;99.90;;;;;;5068491;28;20436;-69
2022/11/24 10:43:18;;;;;;;1999.90;999.90;;;11.00;99.90;;;;;;5068361;28;20240;-70
2022/11/24 10:45:44;;;;;;;1999.90;999.90;;;11.10;99.90;;;;;;5068326;28;20902;-69
2022/11/24 10:48:22;;;;;;;1999.90;999.90;;;11.10;99.90;;;;;;5067998;28;20281;-69
2022/11/24 10:50:51;;;;;;;1999.90;999.90;;;11.10;99.90;;;;;;5068163;28;20450;-70
2022/11/24 10:53:22;;;;;;;1999.90;999.90;;;11.10;99.90;;;;;;5068136;28;20562;-69
2022/11/24 10:55:54;;;;;;;1999.90;999.90;;;11.20;99.90;;;;;;5068058;28;20408;-70
2022/11/24 10:58:25;;;;;;;1999.90;999.90;;;11.20;99.90;;;;;;5067919;28;20416;-69
2022/11/24 11:00:51;;;;;;;1999.90;999.90;;;11.30;99.90;;;;;;5067890;28;20503;-69
2022/11/24 11:03:26;;;;;;;1999.90;999.90;;;11.40;99.90;;;;;;5064768;28;20550;-70
2022/11/24 11:05:56;;;;;;;1999.90;999.90;;;11.60;99.90;;;;;;5054713;28;20493;-69
2022/11/24 11:08:26;;;;;;;1999.90;999.90;;;11.60;99.90;;;;;;5054725;28;20407;-69
2022/11/24 11:11:17;;;;;;;1999.90;999.90;;;11.60;99.90;;;;;;5054697;28;20749;-69
2022/11/24 11:13:59;;;;;;;1999.90;999.90;;;11.70;99.90;;;;;;5052252;28;20475;-71
2022/11/24 11:16:52;;;;;;;1999.90;999.90;;;11.90;99.90;;;;;;5053563;28;20441;-69
2022/11/24 11:19:42;;;;;;;1999.90;999.90;;;12.20;99.90;;;;;;5052510;28;20412;-69
2022/11/24 11:22:11;;;;;;;1999.90;999.90;;;12.50;99.90;;;;;;5053742;28;20425;-69
2022/11/24 11:24:38;;;;;;;1999.90;999.90;;;12.70;99.90;;;;;;5054350;28;20827;-68
2022/11/24 11:27:14;;;;;;;1999.90;999.90;;;13.10;99.90;;;;;;5049260;28;20408;-68
2022/11/24 11:29:40;;;;;;;1999.90;999.90;;;13.70;99.90;;;;;;5053670;28;20852;-69
2022/11/24 11:32:19;;;;;;;1999.90;999.90;;;14.10;99.90;;;;;;5052652;28;20476;-68
2022/11/24 11:34:45;;;;;;;1999.90;999.90;;;14.70;99.90;;;;;;5052986;28;20166;-67
2022/11/24 11:37:13;;;;;;;1999.90;999.90;;;15.00;99.90;;;;;;5053134;28;20775;-68
2022/11/24 11:39:47;;;;;;;1999.90;999.90;;;14.90;99.90;;;;;;5053176;28;20402;-69
2022/11/24 11:42:29;;;;;;;1999.90;999.90;;;14.80;99.90;;;;;;5052785;28;20847;-68
2022/11/24 11:45:04;;;;;;;1999.90;999.90;;;14.60;99.90;;;;;;5053443;28;20773;-68
2022/11/24 11:47:54;;;;;;;1999.90;999.90;;;14.40;99.90;;;;;;5053265;28;20408;-69
2022/11/24 11:50:32;;;;;;;1999.90;999.90;;;14.80;99.90;;;;;;5053090;28;20415;-69
2022/11/24 11:53:17;;;;;;;1999.90;999.90;;;15.20;99.90;;;;;;5052695;28;20462;-70
2022/11/24 11:55:52;;;;;;;1999.90;999.90;;;15.00;99.90;;;;;;5052789;28;20834;-70
2022/11/24 11:58:20;;;;;;;1999.90;999.90;;;15.30;99.90;;;;;;5052682;28;20405;-71
2022/11/24 12:00:53;;;;;;;1999.90;999.90;;;15.10;99.90;;;;;;5053046;28;20765;-70
2022/11/24 12:03:35;;;;;;;1999.90;999.90;;;14.90;99.90;;;;;;5052551;28;20440;-71
2022/11/24 12:06:18;;;;;;;1999.90;999.90;;;14.90;99.90;;;;;;5052909;28;20409;-71
2022/11/24 12:09:06;;;;;;;1999.90;999.90;;;15.30;99.90;;;;;;5053046;28;20409;-71
2022/11/24 12:11:56;;;;;;;1999.90;999.90;;;15.80;99.90;;;;;;5051899;28;20405;-71
2022/11/24 12:14:43;;;;;;;1999.90;999.90;;;16.40;99.90;;;;;;5052513;28;20404;-71
2022/11/24 12:17:31;;;;;;;1999.90;999.90;;;16.80;99.90;;;;;;5052113;28;20395;-71